createdAt,value
2022-07-25T00:02:00.985Z,2.00
2022-07-25T00:07:01.793Z,1.90
2022-07-25T00:12:02.469Z,1.90
2022-07-25T00:17:03.030Z,2.20
2022-07-25T00:22:03.756Z,2.00
2022-07-25T00:27:04.498Z,2.20
2022-07-25T00:32:05.255Z,1.90
2022-07-25T00:37:06.051Z,1.80
2022-07-25T00:42:06.798Z,2.00
2022-07-25T00:47:07.550Z,1.90
2022-07-25T00:52:08.235Z,1.70
2022-07-25T00:57:08.976Z,2.00
2022-07-25T01:02:10.695Z,1.80
2022-07-25T01:07:10.480Z,1.80
2022-07-25T01:12:11.221Z,1.80
2022-07-25T01:17:12.039Z,1.70
2022-07-25T01:22:12.689Z,1.80
2022-07-25T01:27:17.499Z,1.60
2022-07-25T01:32:14.305Z,1.90
2022-07-25T01:37:15.060Z,2.00
2022-07-25T01:42:15.767Z,1.80
2022-07-25T01:47:16.578Z,1.90
2022-07-25T01:52:17.359Z,1.90
2022-07-25T01:57:18.127Z,1.70
2022-07-25T02:02:18.872Z,1.80
2022-07-25T02:07:19.673Z,2.00
2022-07-25T02:12:27.365Z,1.80
2022-07-25T02:17:21.157Z,1.70
2022-07-25T02:22:21.828Z,1.80
2022-07-25T02:27:22.357Z,1.80
2022-07-25T02:32:23.148Z,1.90
2022-07-25T02:37:23.847Z,2.00
2022-07-25T02:42:24.683Z,1.90
2022-07-25T02:47:25.352Z,1.90
2022-07-25T02:52:26.040Z,1.80
2022-07-25T02:57:26.681Z,2.00
2022-07-25T03:02:27.370Z,2.00
2022-07-25T03:07:28.136Z,2.00
2022-07-25T03:12:28.809Z,1.90
2022-07-25T03:17:29.486Z,2.00
2022-07-25T03:22:30.334Z,2.40
2022-07-25T03:27:31.147Z,2.10
2022-07-25T03:32:31.786Z,2.00
2022-07-25T03:37:32.491Z,2.00
2022-07-25T03:42:35.539Z,2.10
2022-07-25T03:47:33.913Z,2.40
2022-07-25T03:52:34.576Z,2.20
2022-07-25T03:57:35.302Z,2.50
2022-07-25T04:02:36.034Z,2.10
2022-07-25T04:07:36.827Z,2.30
2022-07-25T04:12:37.259Z,2.10
2022-07-25T04:17:39.505Z,2.20
2022-07-25T04:22:42.201Z,2.10
2022-07-25T04:27:40.391Z,2.50
2022-07-25T04:32:40.178Z,2.30
2022-07-25T04:37:40.904Z,2.30
2022-07-25T04:42:41.557Z,2.50
2022-07-25T04:47:42.298Z,2.20
2022-07-25T04:52:42.985Z,2.20
2022-07-25T04:57:43.620Z,2.30
2022-07-25T05:02:44.348Z,2.60
2022-07-25T05:07:45.029Z,2.40
2022-07-25T05:12:45.686Z,2.30
2022-07-25T05:17:46.430Z,2.30
2022-07-25T05:22:47.094Z,2.40
2022-07-25T05:27:47.790Z,2.40
2022-07-25T05:32:48.651Z,2.30
2022-07-25T05:37:49.005Z,2.30
2022-07-25T05:42:49.643Z,2.40
2022-07-25T05:47:50.308Z,2.40
2022-07-25T05:52:51.005Z,2.40
2022-07-25T05:57:51.688Z,2.40
2022-07-25T06:02:52.467Z,2.70
2022-07-25T06:07:53.173Z,2.90
2022-07-25T06:12:53.897Z,2.50
2022-07-25T06:17:54.322Z,2.70
2022-07-25T06:22:55.007Z,3.30
2022-07-25T06:27:55.661Z,3.10
2022-07-25T06:32:56.346Z,3.20
2022-07-25T06:37:57.062Z,3.10
2022-07-25T06:42:57.799Z,3.20
2022-07-25T06:47:58.466Z,3.40
2022-07-25T06:52:59.134Z,3.10
2022-07-25T06:57:59.821Z,3.70
2022-07-25T07:03:00.558Z,3.40
2022-07-25T07:08:01.210Z,3.60
2022-07-25T07:13:01.873Z,3.70
2022-07-25T07:18:02.885Z,3.60
2022-07-25T07:23:03.612Z,3.60
2022-07-25T07:28:04.305Z,3.70
2022-07-25T07:33:05.014Z,4.40
2022-07-25T07:38:05.692Z,3.70
2022-07-25T07:43:06.375Z,4.10
2022-07-25T07:48:07.100Z,4.00
2022-07-25T07:53:07.760Z,4.30
2022-07-25T07:58:08.438Z,4.30
2022-07-25T08:03:09.216Z,4.00
2022-07-25T08:08:09.953Z,4.20
2022-07-25T08:13:17.613Z,4.50
2022-07-25T08:18:17.406Z,4.60
2022-07-25T08:23:12.806Z,4.60
2022-07-25T08:28:12.469Z,4.80
2022-07-25T08:33:13.369Z,4.40
2022-07-25T08:38:13.871Z,4.90
2022-07-25T08:43:14.570Z,4.90
2022-07-25T08:48:15.494Z,4.90
2022-07-25T08:53:32.656Z,5.40
2022-07-25T08:58:17.909Z,5.00
2022-07-25T09:03:17.930Z,6.10
2022-07-25T09:08:18.164Z,5.30
2022-07-25T09:13:18.918Z,5.80
2022-07-25T09:18:19.539Z,5.90
2022-07-25T09:23:20.484Z,6.00
2022-07-25T09:28:21.319Z,6.00
2022-07-25T09:33:22.065Z,5.90
2022-07-25T09:38:22.744Z,6.30
2022-07-25T09:43:23.437Z,6.60
2022-07-25T09:48:24.334Z,6.10
2022-07-25T09:53:25.036Z,7.10
2022-07-25T09:58:25.912Z,5.90
2022-07-25T10:03:26.586Z,6.20
2022-07-25T10:08:27.360Z,6.30
2022-07-25T10:13:27.988Z,6.30
2022-07-25T10:18:28.642Z,6.50
2022-07-25T10:23:29.318Z,6.30
2022-07-25T10:28:30.013Z,6.90
2022-07-25T10:33:30.701Z,6.10
2022-07-25T10:38:31.391Z,6.40
2022-07-25T10:43:32.142Z,6.60
2022-07-25T10:48:32.892Z,6.00
2022-07-25T10:53:33.787Z,6.90
2022-07-25T10:58:34.500Z,6.40
2022-07-25T11:03:35.229Z,6.70
2022-07-25T11:08:35.917Z,6.60
2022-07-25T11:13:36.591Z,6.70
2022-07-25T11:18:37.234Z,6.20
2022-07-25T11:23:37.990Z,6.10
2022-07-25T11:28:38.652Z,6.20
2022-07-25T11:33:39.492Z,5.90
2022-07-25T11:38:40.296Z,6.50
2022-07-25T11:43:41.141Z,5.80
2022-07-25T11:48:41.935Z,6.10
2022-07-25T11:53:42.719Z,6.20
2022-07-25T11:58:43.420Z,6.20
2022-07-25T12:03:44.113Z,5.50
2022-07-25T12:08:44.846Z,5.80
2022-07-25T12:13:45.664Z,5.80
2022-07-25T12:18:46.440Z,5.70
2022-07-25T12:23:47.184Z,5.60
2022-07-25T12:28:48.040Z,5.70
2022-07-25T12:33:48.816Z,5.70
2022-07-25T12:38:49.529Z,6.00
2022-07-25T12:43:50.337Z,6.20
2022-07-25T12:48:51.132Z,6.00
2022-07-25T12:53:51.797Z,6.00
2022-07-25T12:58:52.425Z,6.20
2022-07-25T13:03:53.111Z,6.00
2022-07-25T13:08:53.757Z,5.70
2022-07-25T13:13:54.412Z,5.80
2022-07-25T13:18:55.102Z,5.70
2022-07-25T13:23:55.829Z,5.50
2022-07-25T13:28:59.723Z,5.50
2022-07-25T13:33:57.291Z,5.70
2022-07-25T13:38:57.998Z,5.70
2022-07-25T13:43:58.665Z,6.00
2022-07-25T13:48:59.408Z,5.70
2022-07-25T13:54:00.117Z,5.50
2022-07-25T13:59:00.763Z,5.40
2022-07-25T14:04:01.436Z,5.80
2022-07-25T14:09:02.207Z,5.40
2022-07-25T14:14:09.886Z,5.70
2022-07-25T14:19:03.736Z,5.80
2022-07-25T14:24:04.607Z,5.40
2022-07-25T14:29:05.560Z,5.80
2022-07-25T14:34:06.001Z,6.40
2022-07-25T14:39:06.993Z,6.80
2022-07-25T14:44:07.149Z,5.80
2022-07-25T14:49:08.196Z,5.70
2022-07-25T14:54:08.769Z,6.20
2022-07-25T14:59:09.768Z,6.00
2022-07-25T15:04:10.282Z,6.30
2022-07-25T15:09:11.209Z,6.00
2022-07-25T15:14:11.570Z,5.50
2022-07-25T15:19:17.035Z,5.60
2022-07-25T15:24:13.964Z,5.50
2022-07-25T15:29:13.744Z,5.60
2022-07-25T15:34:14.426Z,6.00
2022-07-25T15:39:15.126Z,6.50
2022-07-25T15:44:15.852Z,5.70
2022-07-25T15:49:16.619Z,5.80
2022-07-25T15:54:17.347Z,5.40
2022-07-25T15:59:18.061Z,5.50
2022-07-25T16:04:18.964Z,5.40
2022-07-25T16:09:19.667Z,5.90
2022-07-25T16:14:20.386Z,5.20
2022-07-25T16:19:21.175Z,5.40
2022-07-25T16:24:21.874Z,5.80
2022-07-25T16:29:22.556Z,5.60
2022-07-25T16:34:28.657Z,5.80
2022-07-25T16:39:24.816Z,5.50
2022-07-25T16:44:24.497Z,5.60
2022-07-25T16:49:25.275Z,5.80
2022-07-25T16:54:26.174Z,6.20
2022-07-25T16:59:26.877Z,6.40
2022-07-25T17:04:27.643Z,6.50
2022-07-25T17:09:28.377Z,6.50
2022-07-25T17:14:30.293Z,6.60
2022-07-25T17:19:29.679Z,6.50
2022-07-25T17:24:30.409Z,6.40
2022-07-25T17:29:31.080Z,7.30
2022-07-25T17:34:31.770Z,9.60
2022-07-25T17:39:32.438Z,9.10
2022-07-25T17:44:33.095Z,9.10
2022-07-25T17:49:33.841Z,9.00
2022-07-25T17:54:34.542Z,7.50
2022-07-25T17:59:35.255Z,6.60
2022-07-25T18:04:35.922Z,6.40
2022-07-25T18:09:36.602Z,6.40
2022-07-25T18:14:37.267Z,6.00
2022-07-25T18:19:38.058Z,5.70
2022-07-25T18:24:38.789Z,5.90
2022-07-25T18:29:39.482Z,6.40
2022-07-25T18:34:40.107Z,5.90
2022-07-25T18:39:41.005Z,5.90
2022-07-25T18:44:41.792Z,6.70
2022-07-25T18:49:42.515Z,7.00
2022-07-25T18:54:43.129Z,6.30
2022-07-25T18:59:43.852Z,6.00
2022-07-25T19:04:44.572Z,7.00
2022-07-25T19:09:45.340Z,6.10
2022-07-25T19:14:46.077Z,6.30
2022-07-25T19:19:46.771Z,6.80
2022-07-25T19:24:47.497Z,9.10
2022-07-25T19:29:48.154Z,6.40
2022-07-25T19:34:48.868Z,6.70
2022-07-25T19:39:49.522Z,6.80
2022-07-25T19:44:50.201Z,6.70
2022-07-25T19:49:50.913Z,8.30
2022-07-25T19:54:51.687Z,7.20
2022-07-25T19:59:52.428Z,5.90
2022-07-25T20:04:53.146Z,6.40
2022-07-25T20:09:53.921Z,6.10
2022-07-25T20:15:01.645Z,6.60
2022-07-25T20:19:55.499Z,5.00
2022-07-25T20:24:56.291Z,6.00
2022-07-25T20:29:57.069Z,6.10
2022-07-25T20:34:57.806Z,6.50
2022-07-25T20:39:58.604Z,6.00
2022-07-25T20:44:59.417Z,6.00
2022-07-25T20:50:00.156Z,6.30
2022-07-25T20:55:01.073Z,6.40
2022-07-25T21:00:02.649Z,6.70
2022-07-25T21:05:02.391Z,6.40
2022-07-25T21:10:03.618Z,6.80
2022-07-25T21:15:03.818Z,7.70
2022-07-25T21:20:04.745Z,7.10
2022-07-25T21:25:05.578Z,6.50
2022-07-25T21:30:06.310Z,6.60
2022-07-25T21:35:07.011Z,7.10
2022-07-25T21:40:07.711Z,6.70
2022-07-25T21:45:08.448Z,6.50
2022-07-25T21:50:09.177Z,6.70
2022-07-25T21:55:09.901Z,6.80
2022-07-25T22:00:10.652Z,8.20
2022-07-25T22:05:11.371Z,7.30
2022-07-25T22:10:12.107Z,7.40
2022-07-25T22:15:12.845Z,7.50
2022-07-25T22:20:13.607Z,7.90
2022-07-25T22:25:14.338Z,7.50
2022-07-25T22:30:19.160Z,8.60
2022-07-25T22:35:15.747Z,8.60
2022-07-25T22:40:16.499Z,8.10
2022-07-25T22:45:17.296Z,8.80
2022-07-25T22:50:18.001Z,8.10
2022-07-25T22:55:18.881Z,8.50
2022-07-25T23:00:19.722Z,7.80
2022-07-25T23:05:20.595Z,6.30
2022-07-25T23:10:21.296Z,6.10
2022-07-25T23:15:22.004Z,6.20
2022-07-25T23:20:22.986Z,6.80
2022-07-25T23:25:23.759Z,6.40
2022-07-25T23:30:24.515Z,5.80
2022-07-25T23:35:25.336Z,5.80
2022-07-25T23:40:26.061Z,5.90
2022-07-25T23:45:28.402Z,5.50
2022-07-25T23:50:27.395Z,5.40
2022-07-25T23:55:28.213Z,5.70
